createdAt,value
2018-10-02T00:00:11.884Z,101561.06
2018-10-02T00:02:40.290Z,101561.06
2018-10-02T00:05:08.698Z,101565.66
2018-10-02T00:07:37.099Z,101569.34
2018-10-02T00:10:05.651Z,101566.06
2018-10-02T00:12:39.320Z,101559.14
2018-10-02T00:15:07.985Z,101557.14
2018-10-02T00:17:36.363Z,101557.09
2018-10-02T00:20:04.819Z,101555.00
2018-10-02T00:22:33.208Z,101558.83
2018-10-02T00:25:01.612Z,101558.83
2018-10-02T00:27:29.999Z,101552.95
2018-10-02T00:29:58.408Z,101550.45
2018-10-02T00:32:27.092Z,101550.00
2018-10-02T00:34:55.466Z,101549.95
2018-10-02T00:37:23.893Z,101539.30
2018-10-02T00:39:52.346Z,101528.69
2018-10-02T00:42:20.780Z,101521.49
2018-10-02T00:44:49.197Z,101517.77
2018-10-02T00:47:17.583Z,101517.41
2018-10-02T00:49:47.020Z,101514.50
2018-10-02T00:52:15.455Z,101504.76
2018-10-02T00:54:43.871Z,101505.98
2018-10-02T00:57:12.296Z,101511.85
2018-10-02T00:59:40.751Z,101515.63
2018-10-02T01:02:09.177Z,101512.56
2018-10-02T01:04:37.594Z,101515.48
2018-10-02T01:07:06.115Z,101518.03
2018-10-02T01:09:34.556Z,101524.86
2018-10-02T01:12:03.019Z,101531.64
2018-10-02T01:14:31.424Z,101527.41
2018-10-02T01:16:59.847Z,101523.53
2018-10-02T01:19:28.236Z,101528.04
2018-10-02T01:21:56.672Z,101521.31
2018-10-02T01:24:25.108Z,101526.09
2018-10-02T01:26:53.496Z,101525.67
2018-10-02T01:29:21.918Z,101521.39
2018-10-02T01:31:50.373Z,101521.49
2018-10-02T01:34:18.878Z,101516.39
2018-10-02T01:36:47.249Z,101518.59
2018-10-02T01:39:15.634Z,101512.67
2018-10-02T01:41:44.080Z,101514.30
2018-10-02T01:44:12.453Z,101504.87
2018-10-02T01:46:40.867Z,101498.09
2018-10-02T01:49:09.305Z,101496.00
2018-10-02T01:51:37.672Z,101496.45
2018-10-02T01:54:06.129Z,101501.96
2018-10-02T01:56:34.547Z,101493.34
2018-10-02T01:59:02.945Z,101488.70
2018-10-02T02:01:31.334Z,101490.84
2018-10-02T02:03:59.752Z,101481.88
2018-10-02T02:06:28.156Z,101483.14
2018-10-02T02:08:56.582Z,101475.50
2018-10-02T02:11:24.990Z,101478.09
2018-10-02T02:13:53.364Z,101475.95
2018-10-02T02:16:21.772Z,101471.72
2018-10-02T02:18:50.239Z,101461.11
2018-10-02T02:21:18.695Z,101463.25
2018-10-02T02:23:47.088Z,101468.41
2018-10-02T02:26:15.508Z,101465.45
2018-10-02T02:28:43.900Z,101461.67
2018-10-02T02:31:12.291Z,101465.13
2018-10-02T02:33:40.741Z,101461.36
2018-10-02T02:36:09.165Z,101463.91
2018-10-02T02:38:37.589Z,101455.44
2018-10-02T02:41:06.137Z,101459.67
2018-10-02T02:43:34.542Z,101444.38
2018-10-02T02:46:03.123Z,101439.22
2018-10-02T02:49:35.535Z,101433.67
2018-10-02T02:52:04.011Z,101434.89
2018-10-02T02:54:32.432Z,101432.80
2018-10-02T02:57:00.849Z,101420.05
2018-10-02T02:59:29.290Z,101426.43
2018-10-02T03:01:57.687Z,101429.44
2018-10-02T03:04:26.138Z,101428.16
2018-10-02T03:06:54.554Z,101414.95
2018-10-02T03:09:23.024Z,101414.18
2018-10-02T03:11:51.459Z,101410.77
2018-10-02T03:14:19.835Z,101405.25
2018-10-02T03:16:48.300Z,101407.81
2018-10-02T03:19:16.688Z,101406.44
2018-10-02T03:21:45.128Z,101403.02
2018-10-02T03:24:13.535Z,101402.16
2018-10-02T03:26:41.897Z,101399.56
2018-10-02T03:29:10.318Z,101405.98
2018-10-02T03:31:38.796Z,101398.33
2018-10-02T03:34:07.184Z,101400.93
2018-10-02T03:36:35.605Z,101393.64
2018-10-02T03:39:05.036Z,101380.94
2018-10-02T03:41:33.469Z,101374.11
2018-10-02T03:44:01.872Z,101383.08
2018-10-02T03:46:30.281Z,101385.27
2018-10-02T03:48:58.744Z,101391.23
2018-10-02T03:51:27.141Z,101381.39
2018-10-02T03:53:55.582Z,101369.56
2018-10-02T03:56:24.821Z,101368.33
2018-10-02T03:58:53.348Z,101367.96
2018-10-02T04:01:21.777Z,101359.03
2018-10-02T04:03:50.198Z,101356.45
2018-10-02T04:06:18.652Z,101350.48
2018-10-02T04:08:47.025Z,101357.77
2018-10-02T04:11:15.617Z,101354.34
2018-10-02T04:13:44.026Z,101353.94
2018-10-02T04:16:12.528Z,101348.02
2018-10-02T04:18:40.913Z,101345.92
2018-10-02T04:21:09.362Z,101326.34
2018-10-02T04:23:37.757Z,101280.11
2018-10-02T04:26:06.185Z,101322.52
2018-10-02T04:28:34.576Z,101322.52
2018-10-02T04:31:03.015Z,101320.42
2018-10-02T04:33:31.461Z,101313.59
2018-10-02T04:35:59.851Z,101310.59
2018-10-02T04:38:28.571Z,101298.29
2018-10-02T04:40:57.048Z,101292.86
2018-10-02T04:43:25.436Z,101286.06
2018-10-02T04:45:53.999Z,101276.66
2018-10-02T04:48:22.394Z,101281.37
2018-10-02T04:50:50.844Z,101285.99
2018-10-02T04:53:19.268Z,101278.34
2018-10-02T04:55:47.753Z,101275.00
2018-10-02T04:58:16.080Z,101282.66
2018-10-02T05:00:44.535Z,101280.97
2018-10-02T05:03:12.970Z,101278.01
2018-10-02T05:05:41.420Z,101284.38
2018-10-02T05:08:10.577Z,101282.28
2018-10-02T05:10:39.011Z,101278.05
2018-10-02T05:13:08.389Z,101281.47
2018-10-02T05:15:36.845Z,101281.05
2018-10-02T05:18:06.969Z,101287.06
2018-10-02T05:20:35.395Z,101263.04
2018-10-02T05:23:03.852Z,101276.08
2018-10-02T05:25:32.278Z,101270.16
2018-10-02T05:28:00.691Z,101257.04
2018-10-02T05:30:29.112Z,101262.63
2018-10-02T05:32:57.758Z,101265.19
2018-10-02T05:35:26.195Z,101267.73
2018-10-02T05:37:54.623Z,101272.88
2018-10-02T05:40:23.029Z,101270.33
2018-10-02T05:42:51.503Z,101257.16
2018-10-02T05:45:19.944Z,101257.23
2018-10-02T05:47:48.355Z,101256.83
2018-10-02T05:50:16.899Z,101263.20
2018-10-02T05:52:46.151Z,101259.38
2018-10-02T05:55:14.645Z,101253.41
2018-10-02T05:57:43.119Z,101253.82
2018-10-02T06:00:11.638Z,101258.97
2018-10-02T06:02:40.099Z,101259.83
2018-10-02T06:05:09.236Z,101251.35
2018-10-02T06:07:37.658Z,101244.98
2018-10-02T06:10:07.490Z,101234.77
2018-10-02T06:12:35.940Z,101226.25
2018-10-02T06:15:04.406Z,101224.94
2018-10-02T06:17:32.818Z,101221.16
2018-10-02T06:20:01.206Z,101221.98
2018-10-02T06:22:29.743Z,101213.50
2018-10-02T06:24:58.183Z,101218.23
2018-10-02T06:27:26.640Z,101215.68
2018-10-02T06:29:55.025Z,101216.99
2018-10-02T06:32:23.542Z,101221.69
2018-10-02T06:34:51.991Z,101216.17
2018-10-02T06:37:20.406Z,101200.05
2018-10-02T06:39:48.796Z,101211.06
2018-10-02T06:42:17.256Z,101225.14
2018-10-02T06:44:45.780Z,101222.55
2018-10-02T06:47:14.090Z,101231.48
2018-10-02T06:49:42.506Z,101226.37
2018-10-02T06:52:11.036Z,101221.27
2018-10-02T06:54:39.411Z,101201.73
2018-10-02T06:57:07.893Z,101203.45
2018-10-02T06:59:36.290Z,101206.83
2018-10-02T07:02:04.819Z,101200.05
2018-10-02T07:04:33.199Z,101183.05
2018-10-02T07:07:01.593Z,101173.75
2018-10-02T07:09:30.021Z,101183.58
2018-10-02T07:11:58.469Z,101189.13
2018-10-02T07:14:26.916Z,101184.89
2018-10-02T07:16:55.399Z,101178.96
2018-10-02T07:19:23.884Z,101178.20
2018-10-02T07:21:52.333Z,101175.24
2018-10-02T07:24:20.721Z,101185.94
2018-10-02T07:26:49.357Z,101171.05
2018-10-02T07:29:17.700Z,101161.25
2018-10-02T07:31:46.099Z,101165.45
2018-10-02T07:34:14.620Z,101162.94
2018-10-02T07:36:43.133Z,101157.83
2018-10-02T07:39:11.585Z,101156.67
2018-10-02T07:41:40.086Z,101141.81
2018-10-02T07:44:08.468Z,101135.88
2018-10-02T07:46:36.950Z,101135.58
2018-10-02T07:49:05.420Z,101139.09
2018-10-02T07:51:34.641Z,101144.23
2018-10-02T07:54:03.099Z,101157.86
2018-10-02T07:56:31.636Z,101156.17
2018-10-02T07:59:00.114Z,101164.28
2018-10-02T08:01:28.592Z,101163.45
2018-10-02T08:03:56.993Z,101159.25
2018-10-02T08:06:25.505Z,101158.87
2018-10-02T08:08:53.938Z,101159.29
2018-10-02T08:11:22.429Z,101170.77
2018-10-02T08:13:50.760Z,101178.39
2018-10-02T08:16:19.233Z,101177.49
2018-10-02T08:18:47.657Z,101178.25
2018-10-02T08:21:16.163Z,101171.41
2018-10-02T08:23:44.631Z,101158.73
2018-10-02T08:26:13.035Z,101152.38
2018-10-02T08:28:41.539Z,101156.21
2018-10-02T08:31:09.956Z,101152.42
2018-10-02T08:33:39.988Z,101150.69
2018-10-02T08:36:08.671Z,101151.14
2018-10-02T08:38:37.063Z,101157.59
2018-10-02T08:41:05.457Z,101169.64
2018-10-02T08:43:34.074Z,101156.91
2018-10-02T08:46:02.431Z,101157.78
2018-10-02T08:48:30.828Z,101166.37
2018-10-02T08:50:59.400Z,101156.19
2018-10-02T08:53:28.559Z,101153.30
2018-10-02T08:55:56.932Z,101149.16
2018-10-02T08:58:25.454Z,101149.67
2018-10-02T09:00:54.211Z,101148.50
2018-10-02T09:03:22.684Z,101142.15
2018-10-02T09:05:51.115Z,101139.19
2018-10-02T09:08:19.560Z,101136.25
2018-10-02T09:10:48.042Z,101136.62
2018-10-02T09:13:16.443Z,101138.35
2018-10-02T09:15:44.890Z,101139.15
2018-10-02T09:18:13.275Z,101137.91
2018-10-02T09:20:41.860Z,101134.08
2018-10-02T09:23:10.251Z,101136.62
2018-10-02T09:25:38.670Z,101138.32
2018-10-02T09:28:07.338Z,101145.95
2018-10-02T09:30:42.002Z,101136.91
2018-10-02T09:33:15.580Z,101140.84
2018-10-02T09:35:49.247Z,101143.02
2018-10-02T09:38:23.048Z,101140.91
2018-10-02T09:40:56.915Z,101137.94
2018-10-02T09:43:30.616Z,101139.67
2018-10-02T09:45:59.716Z,101128.20
2018-10-02T09:48:28.111Z,101127.83
2018-10-02T09:50:56.529Z,101123.17
2018-10-02T09:53:24.950Z,101119.81
2018-10-02T09:55:53.390Z,101117.67
2018-10-02T09:58:21.814Z,101124.48
2018-10-02T10:00:55.493Z,101130.45
2018-10-02T10:03:23.837Z,101123.61
2018-10-02T10:05:52.253Z,101127.45
2018-10-02T10:08:20.661Z,101123.68
2018-10-02T10:10:50.025Z,101119.41
2018-10-02T10:13:18.470Z,101110.05
2018-10-02T10:15:46.945Z,101114.33
2018-10-02T10:18:16.034Z,101117.84
2018-10-02T10:20:44.631Z,101109.34
2018-10-02T10:23:13.069Z,101100.80
2018-10-02T10:25:41.505Z,101105.10
2018-10-02T10:28:09.944Z,101104.69
2018-10-02T10:30:38.411Z,101104.30
2018-10-02T10:33:06.818Z,101097.92
2018-10-02T10:35:35.233Z,101090.77
2018-10-02T10:38:03.673Z,101081.44
2018-10-02T10:40:32.136Z,101083.58
2018-10-02T10:43:00.522Z,101077.22
2018-10-02T10:45:29.210Z,101084.06
2018-10-02T10:47:57.674Z,101084.89
2018-10-02T10:50:26.171Z,101084.98
2018-10-02T10:52:54.805Z,101076.48
2018-10-02T10:55:26.300Z,101068.44
2018-10-02T10:57:54.777Z,101065.11
2018-10-02T11:00:24.277Z,101066.84
2018-10-02T11:02:53.555Z,101069.39
2018-10-02T11:05:22.012Z,101073.25
2018-10-02T11:07:52.101Z,101063.89
2018-10-02T11:10:20.692Z,101055.81
2018-10-02T11:12:49.957Z,101051.12
2018-10-02T11:15:19.532Z,101060.98
2018-10-02T11:17:47.921Z,101062.80
2018-10-02T11:20:19.155Z,101064.99
2018-10-02T11:22:47.567Z,101061.61
2018-10-02T11:25:15.998Z,101062.05
2018-10-02T11:27:44.457Z,101068.88
2018-10-02T11:30:13.276Z,101061.28
2018-10-02T11:32:41.698Z,101062.17
2018-10-02T11:35:10.255Z,101065.20
2018-10-02T11:37:38.996Z,101061.84
2018-10-02T11:40:07.482Z,100952.80
2018-10-02T11:42:35.947Z,101061.48
2018-10-02T11:45:04.548Z,101056.39
2018-10-02T11:47:32.947Z,101040.64
2018-10-02T11:50:01.431Z,101040.25
2018-10-02T11:52:29.931Z,101035.61
2018-10-02T11:54:58.323Z,101032.27
2018-10-02T11:57:28.373Z,101034.41
2018-10-02T11:59:56.816Z,101028.94
2018-10-02T12:02:25.469Z,101026.87
2018-10-02T12:04:53.881Z,101018.81
2018-10-02T12:07:22.329Z,101018.87
2018-10-02T12:09:50.757Z,101012.91
2018-10-02T12:12:19.205Z,101018.92
2018-10-02T12:14:47.715Z,101016.41
2018-10-02T12:17:16.096Z,101020.33
2018-10-02T12:19:44.579Z,101019.94
2018-10-02T12:22:12.982Z,101018.70
2018-10-02T12:24:41.410Z,101011.45
2018-10-02T12:27:10.094Z,101012.78
2018-10-02T12:29:38.555Z,101007.25
2018-10-02T12:32:07.082Z,101001.36
2018-10-02T12:34:35.512Z,100998.03
2018-10-02T12:37:03.949Z,100991.23
2018-10-02T12:39:32.359Z,101001.56
2018-10-02T12:42:00.758Z,100995.16
2018-10-02T12:44:29.308Z,100995.66
2018-10-02T12:46:57.755Z,100993.61
2018-10-02T12:49:26.366Z,100995.36
2018-10-02T12:51:54.811Z,100994.05
2018-10-02T12:54:23.250Z,100994.54
2018-10-02T12:56:51.688Z,100992.47
2018-10-02T12:59:20.166Z,100996.75
2018-10-02T13:01:48.628Z,101001.42
2018-10-02T13:04:17.133Z,101001.03
2018-10-02T13:06:45.578Z,100996.39
2018-10-02T13:09:14.331Z,100997.75
2018-10-02T13:11:42.756Z,101004.19
2018-10-02T13:14:11.185Z,100995.27
2018-10-02T13:16:39.639Z,101009.03
2018-10-02T13:19:08.059Z,101012.63
2018-10-02T13:21:36.529Z,101013.11
2018-10-02T13:24:05.009Z,101011.88
2018-10-02T13:26:33.498Z,101012.31
2018-10-02T13:29:01.992Z,101005.10
2018-10-02T13:31:30.561Z,101007.27
2018-10-02T13:33:59.065Z,101005.58
2018-10-02T13:36:27.499Z,101014.55
2018-10-02T13:38:55.924Z,101011.20
2018-10-02T13:41:24.370Z,101008.70
2018-10-02T13:43:52.829Z,101013.84
2018-10-02T13:46:21.280Z,101014.70
2018-10-02T13:48:49.741Z,101013.91
2018-10-02T13:51:18.226Z,101020.37
2018-10-02T13:53:46.696Z,100962.30
2018-10-02T13:56:15.180Z,101018.78
2018-10-02T13:58:43.660Z,101029.95
2018-10-02T14:01:12.145Z,101036.82
2018-10-02T14:03:40.546Z,101035.55
2018-10-02T14:06:09.923Z,101030.44
2018-10-02T14:08:39.096Z,101028.31
2018-10-02T14:11:09.791Z,101024.03
2018-10-02T14:13:38.598Z,101019.84
2018-10-02T14:16:07.180Z,101018.58
2018-10-02T14:18:35.606Z,101011.73
2018-10-02T14:21:04.042Z,100967.86
2018-10-02T14:23:32.509Z,101012.58
2018-10-02T14:26:02.182Z,101010.03
2018-10-02T14:28:30.740Z,101007.11
2018-10-02T14:30:59.191Z,101004.97
2018-10-02T14:33:27.843Z,101005.47
2018-10-02T14:35:56.279Z,100998.64
2018-10-02T14:38:25.393Z,100994.06
2018-10-02T14:40:53.809Z,100998.33
2018-10-02T14:43:22.712Z,100995.78
2018-10-02T14:45:51.403Z,101007.68
2018-10-02T14:48:19.812Z,101009.93
2018-10-02T14:50:48.353Z,101002.69
2018-10-02T14:53:17.844Z,101007.44
2018-10-02T14:55:46.365Z,101010.91
2018-10-02T14:58:14.797Z,101008.78
2018-10-02T15:00:43.255Z,101015.70
2018-10-02T15:03:11.696Z,101012.42
2018-10-02T15:05:40.128Z,101009.88
2018-10-02T15:08:08.605Z,100997.09
2018-10-02T15:10:37.099Z,101004.02
2018-10-02T15:13:05.577Z,101002.75
2018-10-02T15:15:34.036Z,101008.80
2018-10-02T15:18:03.075Z,100995.97
2018-10-02T15:20:31.601Z,100999.80
2018-10-02T15:23:00.087Z,101002.80
2018-10-02T15:25:28.508Z,101006.67
2018-10-02T15:27:56.998Z,101009.25
2018-10-02T15:30:25.518Z,101004.11
2018-10-02T15:32:54.067Z,101011.80
2018-10-02T15:35:22.519Z,101011.98
2018-10-02T15:37:51.307Z,101001.36
2018-10-02T15:40:19.661Z,101009.91
2018-10-02T15:42:48.263Z,101011.70
2018-10-02T15:45:16.815Z,101014.28
2018-10-02T15:47:45.383Z,101001.86
2018-10-02T15:50:13.837Z,101000.20
2018-10-02T15:52:43.490Z,100995.89
2018-10-02T15:55:11.929Z,101002.73
2018-10-02T15:57:40.521Z,100996.80
2018-10-02T16:00:09.012Z,100997.67
2018-10-02T16:02:37.514Z,101001.12
2018-10-02T16:05:06.054Z,100998.12
2018-10-02T16:07:34.547Z,100994.70
2018-10-02T16:10:02.981Z,100996.86
2018-10-02T16:12:31.480Z,100987.86
2018-10-02T16:14:59.909Z,100998.55
2018-10-02T16:17:28.428Z,101001.98
2018-10-02T16:19:56.873Z,101003.69
2018-10-02T16:22:25.379Z,101001.64
2018-10-02T16:24:53.832Z,101011.50
2018-10-02T16:27:22.212Z,101010.21
2018-10-02T16:29:50.649Z,101026.09
2018-10-02T16:32:19.128Z,101024.45
2018-10-02T16:34:49.766Z,101025.33
2018-10-02T16:37:16.082Z,101024.98
2018-10-02T16:39:44.508Z,101032.28
2018-10-02T16:42:13.389Z,101027.59
2018-10-02T16:44:41.870Z,101038.81
2018-10-02T16:47:10.416Z,101045.25
2018-10-02T16:49:38.724Z,101048.25
2018-10-02T16:52:07.416Z,101041.39
2018-10-02T16:54:36.042Z,101042.22
2018-10-02T16:57:04.371Z,101049.45
2018-10-02T16:59:32.767Z,101055.50
2018-10-02T17:02:01.216Z,101063.97
2018-10-02T17:04:29.777Z,101067.84
2018-10-02T17:06:58.775Z,101063.98
2018-10-02T17:09:27.293Z,101072.55
2018-10-02T17:11:55.723Z,101076.38
2018-10-02T17:14:24.869Z,101081.00
2018-10-02T17:16:53.316Z,101086.11
2018-10-02T17:19:22.963Z,101095.52
2018-10-02T17:21:51.430Z,101098.95
2018-10-02T17:24:19.869Z,101091.70
2018-10-02T17:26:48.280Z,101101.06
2018-10-02T17:29:16.731Z,101102.34
2018-10-02T17:31:45.152Z,101109.16
2018-10-02T17:34:13.619Z,101105.70
2018-10-02T17:36:42.116Z,101110.39
2018-10-02T17:39:11.588Z,101110.75
2018-10-02T17:41:40.248Z,101109.86
2018-10-02T17:44:08.687Z,101115.80
2018-10-02T17:46:37.196Z,101116.94
2018-10-02T17:49:05.779Z,101124.67
2018-10-02T17:51:34.122Z,101135.81
2018-10-02T17:54:02.579Z,101139.64
2018-10-02T17:56:32.241Z,101144.66
2018-10-02T17:59:00.677Z,101148.02
2018-10-02T18:01:29.130Z,101151.34
2018-10-02T18:03:57.557Z,101147.41
2018-10-02T18:06:25.987Z,101145.21
2018-10-02T18:08:54.528Z,101153.27
2018-10-02T18:11:23.134Z,101158.32
2018-10-02T18:13:51.591Z,101158.69
2018-10-02T18:16:20.017Z,101159.92
2018-10-02T18:18:48.419Z,101161.55
2018-10-02T18:21:16.873Z,101165.34
2018-10-02T18:23:45.275Z,101165.73
2018-10-02T18:26:13.713Z,101166.55
2018-10-02T18:28:42.158Z,101166.95
2018-10-02T18:31:10.567Z,101172.95
2018-10-02T18:33:39.045Z,101175.91
2018-10-02T18:36:07.484Z,101182.67
2018-10-02T18:38:36.087Z,101182.67
2018-10-02T18:41:04.613Z,101183.11
2018-10-02T18:43:33.105Z,101185.66
2018-10-02T18:46:01.592Z,101183.11
2018-10-02T18:48:30.116Z,101189.53
2018-10-02T18:50:58.595Z,101192.47
2018-10-02T18:53:27.099Z,101191.59
2018-10-02T18:55:55.541Z,101190.71
2018-10-02T18:58:24.000Z,101183.00
2018-10-02T19:00:52.453Z,101188.09
2018-10-02T19:03:20.881Z,101188.06
2018-10-02T19:05:49.399Z,101177.73
2018-10-02T19:08:21.970Z,101186.27
2018-10-02T19:10:50.409Z,101196.06
2018-10-02T19:13:18.859Z,101190.50
2018-10-02T19:15:52.449Z,101185.80
2018-10-02T19:18:20.927Z,101186.61
2018-10-02T19:20:51.529Z,101195.98
2018-10-02T19:23:20.077Z,101201.91
2018-10-02T19:25:53.783Z,101202.70
2018-10-02T19:28:22.287Z,101202.25
2018-10-02T19:30:56.022Z,101202.21
2018-10-02T19:33:24.605Z,101202.21
2018-10-02T19:35:53.305Z,101212.48
2018-10-02T19:38:27.109Z,101215.45
2018-10-02T19:40:55.901Z,101202.10
2018-10-02T19:43:24.416Z,101213.68
2018-10-02T19:45:58.151Z,101225.61
2018-10-02T19:48:26.592Z,101223.89
2018-10-02T19:51:00.288Z,101208.06
2018-10-02T19:53:28.753Z,101211.91
2018-10-02T19:55:57.267Z,101217.85
2018-10-02T19:58:25.765Z,101216.16
2018-10-02T20:00:54.183Z,101215.63
2018-10-02T20:03:22.595Z,101219.87
2018-10-02T20:05:51.888Z,101222.44
2018-10-02T20:08:20.347Z,101219.87
2018-10-02T20:10:48.800Z,101207.02
2018-10-02T20:13:18.175Z,101212.98
2018-10-02T20:15:46.594Z,101210.81
2018-10-02T20:18:15.025Z,101209.06
2018-10-02T20:20:43.624Z,101212.05
2018-10-02T20:23:12.108Z,101215.81
2018-10-02T20:25:40.679Z,101221.33
2018-10-02T20:28:09.100Z,101221.33
2018-10-02T20:30:37.672Z,101215.36
2018-10-02T20:33:06.239Z,101216.18
2018-10-02T20:35:34.672Z,101219.16
2018-10-02T20:38:03.115Z,101221.30
2018-10-02T20:40:31.642Z,101223.84
2018-10-02T20:43:00.086Z,101229.41
2018-10-02T20:45:28.615Z,101232.41
2018-10-02T20:47:57.096Z,101239.26
2018-10-02T20:50:25.536Z,101239.70
2018-10-02T20:52:54.339Z,101237.58
2018-10-02T20:55:23.026Z,101247.47
2018-10-02T20:57:51.669Z,101241.51
2018-10-02T21:00:20.286Z,101240.23
2018-10-02T21:02:48.753Z,101235.55
2018-10-02T21:05:17.200Z,101232.98
2018-10-02T21:07:45.652Z,101229.56
2018-10-02T21:10:14.065Z,101224.86
2018-10-02T21:12:42.658Z,101225.72
2018-10-02T21:15:11.172Z,101226.58
2018-10-02T21:17:39.540Z,101220.59
2018-10-02T21:20:08.224Z,101211.20
2018-10-02T21:22:36.658Z,101217.61
2018-10-02T21:25:05.371Z,101215.05
2018-10-02T21:27:33.815Z,101218.89
2018-10-02T21:30:02.309Z,101218.89
2018-10-02T21:32:30.702Z,101223.17
2018-10-02T21:34:59.084Z,101219.75
2018-10-02T21:37:27.533Z,101217.19
2018-10-02T21:39:56.044Z,101222.34
2018-10-02T21:42:24.460Z,101225.77
2018-10-02T21:44:52.917Z,101232.59
2018-10-02T21:47:21.371Z,101218.94
2018-10-02T21:49:49.842Z,101230.47
2018-10-02T21:52:18.278Z,101227.06
2018-10-02T21:54:46.798Z,101236.87
2018-10-02T21:57:15.260Z,101234.31
2018-10-02T21:59:43.725Z,101232.19
2018-10-02T22:02:12.188Z,101233.47
2018-10-02T22:04:40.851Z,101231.77
2018-10-02T22:07:09.771Z,101230.91
2018-10-02T22:09:38.195Z,101221.08
2018-10-02T22:12:06.738Z,101224.51
2018-10-02T22:14:35.273Z,101232.15
2018-10-02T22:17:03.852Z,101229.14
2018-10-02T22:19:32.260Z,101232.55
2018-10-02T22:22:01.325Z,101235.94
2018-10-02T22:24:29.769Z,101230.81
2018-10-02T22:26:58.160Z,101229.95
2018-10-02T22:29:26.645Z,101226.03
2018-10-02T22:31:55.096Z,101221.72
2018-10-02T22:34:23.500Z,101215.27
2018-10-02T22:36:51.926Z,101214.80
2018-10-02T22:39:20.338Z,101204.48
2018-10-02T22:41:48.797Z,101209.52
2018-10-02T22:44:17.239Z,101210.75
2018-10-02T22:46:45.643Z,101212.82
2018-10-02T22:49:14.084Z,101215.30
2018-10-02T22:51:42.533Z,101200.31
2018-10-02T22:54:11.027Z,101197.69
2018-10-02T22:56:39.459Z,101195.87
2018-10-02T22:59:07.933Z,101205.18
2018-10-02T23:01:36.316Z,101203.42
2018-10-02T23:04:04.809Z,101205.98
2018-10-02T23:06:33.377Z,101205.97
2018-10-02T23:09:01.844Z,101210.19
2018-10-02T23:11:30.207Z,101206.69
2018-10-02T23:13:58.644Z,101213.95
2018-10-02T23:16:27.052Z,101210.08
2018-10-02T23:18:55.448Z,101206.27
2018-10-02T23:21:24.227Z,101214.84
2018-10-02T23:23:52.657Z,101221.66
2018-10-02T23:26:21.228Z,101217.90
2018-10-02T23:28:49.609Z,101220.48
2018-10-02T23:31:18.119Z,101223.88
2018-10-02T23:33:46.535Z,101226.47
2018-10-02T23:36:14.984Z,101226.44
2018-10-02T23:38:43.453Z,101235.02
2018-10-02T23:41:11.879Z,101231.17
2018-10-02T23:43:40.293Z,101228.64
2018-10-02T23:46:08.736Z,101235.48
2018-10-02T23:48:37.234Z,101234.65
2018-10-02T23:51:06.066Z,101237.68
2018-10-02T23:53:34.487Z,101235.62
2018-10-02T23:56:02.946Z,101233.09
2018-10-02T23:58:31.334Z,101236.09
